createdAt,value
2018-05-03T00:00:03.366Z,55.50
2018-05-03T00:02:31.687Z,55.60
2018-05-03T00:04:59.222Z,55.60
2018-05-03T00:07:26.785Z,55.60
2018-05-03T00:09:54.322Z,55.60
2018-05-03T00:12:22.742Z,55.80
2018-05-03T00:14:50.274Z,55.60
2018-05-03T00:17:17.825Z,55.70
2018-05-03T00:19:46.139Z,55.80
2018-05-03T00:22:13.701Z,55.80
2018-05-03T00:24:41.247Z,55.80
2018-05-03T00:27:08.802Z,55.80
2018-05-03T00:29:36.338Z,55.80
2018-05-03T00:32:04.671Z,55.90
2018-05-03T00:34:32.259Z,55.80
2018-05-03T00:36:59.822Z,55.90
2018-05-03T00:39:27.355Z,55.90
2018-05-03T00:41:54.911Z,55.90
2018-05-03T00:44:22.447Z,55.90
2018-05-03T00:46:50.006Z,55.90
2018-05-03T00:49:17.536Z,55.90
2018-05-03T00:51:45.860Z,55.90
2018-05-03T00:54:25.356Z,55.90
2018-05-03T00:56:53.686Z,56.00
2018-05-03T00:59:21.230Z,55.90
2018-05-03T01:01:49.547Z,56.10
2018-05-03T01:04:17.078Z,56.00
2018-05-03T01:06:44.638Z,56.10
2018-05-03T01:09:12.169Z,56.10
2018-05-03T01:11:39.697Z,56.10
2018-05-03T01:14:07.261Z,56.10
2018-05-03T01:16:35.568Z,56.20
2018-05-03T01:19:03.122Z,56.20
2018-05-03T01:21:30.655Z,56.20
2018-05-03T01:23:58.982Z,56.20
2018-05-03T01:26:26.514Z,56.20
2018-05-03T01:28:54.068Z,56.20
2018-05-03T01:31:22.363Z,56.20
2018-05-03T01:33:49.924Z,56.20
2018-05-03T01:36:27.244Z,56.30
2018-05-03T01:38:54.799Z,56.30
2018-05-03T01:41:22.336Z,56.20
2018-05-03T01:43:49.886Z,56.20
2018-05-03T01:46:18.182Z,56.20
2018-05-03T01:48:45.734Z,56.20
2018-05-03T01:51:13.266Z,56.20
2018-05-03T01:53:41.595Z,56.30
2018-05-03T01:56:09.133Z,56.20
2018-05-03T01:58:36.695Z,56.30
2018-05-03T02:01:04.240Z,56.20
2018-05-03T02:03:31.793Z,56.30
2018-05-03T02:06:00.091Z,56.40
2018-05-03T02:08:27.651Z,56.30
2018-05-03T02:10:55.218Z,56.30
2018-05-03T02:13:22.774Z,56.40
2018-05-03T02:15:50.315Z,56.40
2018-05-03T02:18:17.874Z,56.40
2018-05-03T02:20:45.407Z,56.40
2018-05-03T02:23:12.966Z,56.50
2018-05-03T02:25:41.263Z,56.20
2018-05-03T02:28:09.585Z,56.60
2018-05-03T02:30:37.114Z,56.60
2018-05-03T02:33:04.674Z,56.60
2018-05-03T02:35:32.221Z,56.70
2018-05-03T02:38:00.554Z,56.60
2018-05-03T02:40:28.095Z,56.60
2018-05-03T02:42:55.662Z,56.60
2018-05-03T02:45:23.191Z,56.70
2018-05-03T02:47:50.759Z,56.60
2018-05-03T02:50:18.299Z,56.70
2018-05-03T02:52:46.623Z,56.80
2018-05-03T02:55:14.163Z,56.70
2018-05-03T02:57:59.644Z,56.80
2018-05-03T03:00:44.802Z,56.80
2018-05-03T03:03:30.079Z,56.80
2018-05-03T03:06:09.596Z,56.80
2018-05-03T03:08:55.605Z,56.90
2018-05-03T03:14:50.094Z,56.80
2018-05-03T03:17:36.087Z,56.80
2018-05-03T03:20:37.222Z,57.30
2018-05-03T03:23:22.525Z,56.80
2018-05-03T03:26:08.409Z,56.90
2018-05-03T03:28:54.414Z,56.90
2018-05-03T03:31:39.766Z,56.90
2018-05-03T03:34:13.124Z,57.00
2018-05-03T03:37:01.355Z,57.00
2018-05-03T03:39:40.776Z,57.00
2018-05-03T03:42:42.682Z,57.00
2018-05-03T03:45:10.230Z,57.00
2018-05-03T03:47:37.768Z,57.00
2018-05-03T03:50:05.323Z,57.10
2018-05-03T03:52:32.858Z,57.10
2018-05-03T03:55:01.194Z,57.30
2018-05-03T03:57:28.732Z,57.30
2018-05-03T03:59:56.271Z,57.30
2018-05-03T04:02:23.848Z,57.20
2018-05-03T04:04:51.414Z,57.30
2018-05-03T04:07:18.977Z,57.30
2018-05-03T04:09:46.525Z,57.30
2018-05-03T04:12:14.076Z,57.30
2018-05-03T04:14:41.616Z,57.30
2018-05-03T04:17:09.939Z,57.40
2018-05-03T04:19:49.540Z,57.40
2018-05-03T04:22:39.499Z,57.40
2018-05-03T04:25:18.669Z,57.30
2018-05-03T04:27:46.218Z,57.50
2018-05-03T04:30:14.519Z,57.40
2018-05-03T04:32:42.084Z,57.40
2018-05-03T04:35:09.624Z,57.40
2018-05-03T04:37:37.944Z,57.40
2018-05-03T04:40:05.478Z,57.30
2018-05-03T04:42:33.029Z,57.30
2018-05-03T04:45:00.572Z,57.40
2018-05-03T04:47:28.900Z,57.40
2018-05-03T04:49:56.432Z,57.20
2018-05-03T04:52:23.995Z,57.30
2018-05-03T04:54:51.539Z,57.20
2018-05-03T04:57:19.098Z,57.20
2018-05-03T04:59:46.630Z,57.20
2018-05-03T05:02:14.245Z,57.30
2018-05-03T05:04:41.805Z,57.30
2018-05-03T05:07:09.363Z,57.30
2018-05-03T05:09:36.902Z,57.30
2018-05-03T05:12:04.431Z,57.40
2018-05-03T05:14:31.977Z,57.30
2018-05-03T05:16:59.511Z,57.30
2018-05-03T05:19:27.064Z,57.40
2018-05-03T05:21:54.603Z,57.30
2018-05-03T05:24:22.158Z,57.30
2018-05-03T05:26:49.694Z,57.30
2018-05-03T05:29:18.011Z,57.50
2018-05-03T05:31:45.543Z,57.90
2018-05-03T05:34:13.872Z,57.40
2018-05-03T05:36:41.411Z,57.30
2018-05-03T05:39:08.967Z,57.30
2018-05-03T05:41:36.507Z,57.40
2018-05-03T05:44:04.916Z,57.40
2018-05-03T05:46:32.450Z,57.40
2018-05-03T05:49:00.002Z,57.50
2018-05-03T05:51:28.308Z,57.50
2018-05-03T05:53:55.875Z,57.50
2018-05-03T05:56:23.429Z,57.50
2018-05-03T05:58:50.991Z,57.40
2018-05-03T06:01:18.514Z,57.50
2018-05-03T06:03:46.832Z,57.60
2018-05-03T06:06:14.367Z,57.50
2018-05-03T06:08:41.924Z,57.60
2018-05-03T06:11:09.463Z,57.50
2018-05-03T06:13:37.790Z,57.50
2018-05-03T06:16:05.482Z,57.50
2018-05-03T06:18:34.034Z,57.60
2018-05-03T06:21:02.426Z,57.70
2018-05-03T06:23:29.981Z,57.70
2018-05-03T06:25:57.582Z,57.70
2018-05-03T06:28:25.100Z,57.70
2018-05-03T06:30:52.630Z,57.60
2018-05-03T06:33:20.210Z,57.60
2018-05-03T06:35:47.746Z,57.70
2018-05-03T06:38:15.303Z,57.70
2018-05-03T06:40:43.598Z,57.70
2018-05-03T06:43:11.135Z,57.70
2018-05-03T06:45:39.465Z,57.70
2018-05-03T06:48:07.109Z,57.70
2018-05-03T06:50:34.668Z,57.80
2018-05-03T06:53:02.196Z,57.80
2018-05-03T06:55:30.518Z,57.80
2018-05-03T06:57:58.053Z,57.80
2018-05-03T07:00:25.613Z,57.70
2018-05-03T07:02:53.149Z,57.80
2018-05-03T07:05:21.481Z,57.80
2018-05-03T07:07:49.124Z,57.70
2018-05-03T07:10:16.679Z,57.80
2018-05-03T07:12:44.207Z,57.70
2018-05-03T07:15:12.529Z,57.70
2018-05-03T07:17:40.067Z,57.60
2018-05-03T07:20:07.623Z,57.80
2018-05-03T07:22:35.153Z,57.70
2018-05-03T07:25:03.486Z,57.80
2018-05-03T07:27:31.789Z,57.80
2018-05-03T07:29:59.346Z,57.70
2018-05-03T07:32:26.979Z,57.70
2018-05-03T07:34:54.549Z,57.60
2018-05-03T07:37:22.096Z,57.60
2018-05-03T07:39:49.651Z,57.50
2018-05-03T07:42:17.183Z,57.60
2018-05-03T07:44:45.502Z,57.50
2018-05-03T07:47:13.083Z,57.50
2018-05-03T07:49:41.382Z,57.40
2018-05-03T07:52:08.922Z,57.40
2018-05-03T07:54:36.483Z,57.30
2018-05-03T07:57:04.934Z,57.30
2018-05-03T07:59:32.497Z,57.30
2018-05-03T08:02:00.067Z,57.20
2018-05-03T08:04:27.627Z,57.20
2018-05-03T08:06:55.158Z,57.10
2018-05-03T08:09:22.714Z,56.90
2018-05-03T08:11:50.253Z,56.70
2018-05-03T08:14:18.574Z,56.80
2018-05-03T08:16:46.345Z,56.80
2018-05-03T08:19:13.919Z,56.80
2018-05-03T08:21:41.450Z,56.70
2018-05-03T08:24:09.010Z,56.70
2018-05-03T08:26:36.541Z,56.60
2018-05-03T08:29:04.869Z,56.50
2018-05-03T08:31:32.403Z,56.50
2018-05-03T08:33:59.958Z,56.50
2018-05-03T08:36:27.498Z,56.30
2018-05-03T08:38:55.796Z,56.30
2018-05-03T08:41:23.388Z,56.20
2018-05-03T08:43:50.912Z,56.20
2018-05-03T08:46:18.474Z,56.10
2018-05-03T08:48:46.010Z,56.10
2018-05-03T08:51:14.337Z,56.10
2018-05-03T08:53:41.870Z,56.00
2018-05-03T08:56:09.427Z,56.10
2018-05-03T08:58:36.962Z,56.00
2018-05-03T09:01:05.282Z,56.10
2018-05-03T09:03:32.826Z,56.10
2018-05-03T09:06:00.385Z,56.20
2018-05-03T09:08:27.923Z,56.10
2018-05-03T09:10:56.248Z,55.90
2018-05-03T09:13:23.778Z,55.90
2018-05-03T09:15:51.329Z,55.90
2018-05-03T09:18:19.622Z,55.80
2018-05-03T09:20:47.937Z,55.70
2018-05-03T09:23:15.461Z,55.70
2018-05-03T09:25:43.018Z,55.80
2018-05-03T09:28:10.558Z,55.80
2018-05-03T09:30:38.878Z,55.60
2018-05-03T09:33:06.417Z,55.60
2018-05-03T09:35:33.972Z,55.60
2018-05-03T09:38:01.566Z,55.70
2018-05-03T09:40:29.126Z,55.60
2018-05-03T09:42:57.430Z,55.60
2018-05-03T09:45:24.990Z,55.60
2018-05-03T09:47:53.293Z,55.70
2018-05-03T09:50:21.729Z,55.80
2018-05-03T09:52:49.266Z,55.80
2018-05-03T09:55:16.830Z,55.60
2018-05-03T09:57:44.363Z,55.60
2018-05-03T10:00:11.999Z,55.70
2018-05-03T10:02:39.510Z,55.80
2018-05-03T10:05:07.826Z,55.60
2018-05-03T10:07:35.361Z,55.50
2018-05-03T10:10:02.936Z,55.50
2018-05-03T10:12:30.474Z,55.30
2018-05-03T10:14:58.055Z,55.30
2018-05-03T10:17:25.595Z,55.30
2018-05-03T10:19:53.149Z,55.10
2018-05-03T10:22:20.689Z,55.10
2018-05-03T10:24:48.256Z,54.90
2018-05-03T10:27:16.561Z,54.70
2018-05-03T10:29:44.109Z,54.70
2018-05-03T10:32:11.648Z,54.60
2018-05-03T10:34:39.202Z,53.80
2018-05-03T10:37:06.746Z,53.20
2018-05-03T10:39:35.043Z,52.50
2018-05-03T10:42:02.655Z,52.40
2018-05-03T10:44:30.169Z,52.50
2018-05-03T10:46:57.725Z,52.10
2018-05-03T10:49:25.263Z,51.60
2018-05-03T10:51:53.581Z,51.30
2018-05-03T10:54:21.121Z,51.20
2018-05-03T10:56:48.678Z,51.10
2018-05-03T10:59:16.206Z,51.00
2018-05-03T11:01:43.769Z,50.90
2018-05-03T11:04:12.079Z,51.00
2018-05-03T11:06:39.638Z,50.90
2018-05-03T11:09:07.169Z,50.50
2018-05-03T11:11:35.490Z,50.30
2018-05-03T11:14:03.030Z,50.30
2018-05-03T11:16:30.586Z,50.30
2018-05-03T11:18:58.150Z,50.00
2018-05-03T11:21:25.710Z,50.30
2018-05-03T11:23:53.290Z,50.80
2018-05-03T11:26:20.853Z,51.40
2018-05-03T11:28:48.389Z,52.00
2018-05-03T11:31:15.950Z,52.40
2018-05-03T11:33:43.495Z,52.70
2018-05-03T11:36:11.818Z,53.40
2018-05-03T11:38:39.349Z,53.30
2018-05-03T11:41:06.906Z,54.10
2018-05-03T11:43:34.443Z,53.80
2018-05-03T11:46:02.764Z,54.00
2018-05-03T11:48:31.061Z,54.70
2018-05-03T11:50:58.616Z,54.00
2018-05-03T11:53:26.152Z,54.00
2018-05-03T11:55:53.723Z,54.00
2018-05-03T11:58:21.257Z,53.30
2018-05-03T12:00:48.812Z,52.80
2018-05-03T12:03:17.118Z,53.30
2018-05-03T12:05:44.676Z,53.30
2018-05-03T12:08:12.216Z,54.20
2018-05-03T12:10:39.800Z,54.70
2018-05-03T12:13:07.326Z,54.80
2018-05-03T12:15:35.649Z,55.00
2018-05-03T12:18:03.172Z,55.00
2018-05-03T12:20:30.730Z,54.80
2018-05-03T12:22:59.032Z,54.90
2018-05-03T12:25:26.578Z,54.80
2018-05-03T12:27:54.118Z,54.90
2018-05-03T12:30:22.442Z,55.10
2018-05-03T12:32:49.984Z,55.10
2018-05-03T12:35:17.560Z,55.30
2018-05-03T12:37:45.099Z,55.20
2018-05-03T12:40:13.405Z,55.20
2018-05-03T12:42:41.033Z,55.10
2018-05-03T12:45:08.529Z,54.90
2018-05-03T12:47:36.082Z,54.90
2018-05-03T12:50:03.615Z,54.80
2018-05-03T12:52:31.171Z,54.90
2018-05-03T12:54:58.713Z,55.10
2018-05-03T12:57:27.038Z,55.00
2018-05-03T12:59:54.572Z,54.90
2018-05-03T13:02:22.135Z,55.20
2018-05-03T13:04:49.680Z,55.20
2018-05-03T13:07:17.250Z,55.40
2018-05-03T13:09:44.785Z,55.50
2018-05-03T13:12:13.109Z,55.50
2018-05-03T13:14:40.640Z,55.50
2018-05-03T13:17:08.241Z,55.60
2018-05-03T13:19:35.781Z,55.70
2018-05-03T13:22:03.344Z,55.70
2018-05-03T13:24:30.880Z,55.60
2018-05-03T13:26:58.463Z,55.80
2018-05-03T13:29:26.005Z,55.70
2018-05-03T13:31:53.563Z,55.80
2018-05-03T13:34:21.099Z,55.80
2018-05-03T13:36:49.469Z,55.80
2018-05-03T13:39:16.996Z,55.80
2018-05-03T13:41:44.555Z,55.80
2018-05-03T13:44:12.090Z,55.80
2018-05-03T13:46:39.662Z,55.90
2018-05-03T13:49:07.201Z,55.80
2018-05-03T13:51:34.757Z,55.90
2018-05-03T13:54:02.299Z,55.90
2018-05-03T13:56:30.628Z,56.00
2018-05-03T13:58:58.164Z,55.80
2018-05-03T14:01:25.720Z,55.90
2018-05-03T14:03:53.255Z,55.90
2018-05-03T14:06:21.579Z,56.00
2018-05-03T14:08:49.114Z,56.00
2018-05-03T14:11:16.673Z,56.00
2018-05-03T14:13:44.205Z,56.00
2018-05-03T14:16:11.774Z,56.00
2018-05-03T14:18:40.080Z,56.10
2018-05-03T14:21:07.697Z,56.10
2018-05-03T14:23:35.218Z,56.10
2018-05-03T14:26:02.781Z,56.10
2018-05-03T14:28:30.314Z,56.10
2018-05-03T14:30:57.880Z,56.10
2018-05-03T14:33:25.419Z,56.20
2018-05-03T14:35:53.747Z,56.20
2018-05-03T14:38:21.304Z,56.20
2018-05-03T14:40:48.845Z,56.30
2018-05-03T14:43:16.409Z,56.30
2018-05-03T14:45:43.958Z,56.50
2018-05-03T14:48:11.520Z,56.50
2018-05-03T14:50:39.075Z,56.60
2018-05-03T14:53:06.642Z,56.70
2018-05-03T14:55:34.180Z,56.70
2018-05-03T14:58:02.508Z,56.90
2018-05-03T15:00:30.043Z,56.90
2018-05-03T15:02:57.603Z,62.50
2018-05-03T15:05:25.133Z,57.60
2018-05-03T15:07:53.462Z,53.10
2018-05-03T15:10:21.005Z,53.10
2018-05-03T15:12:48.584Z,52.00
2018-05-03T15:15:16.135Z,51.30
2018-05-03T15:17:43.702Z,51.00
2018-05-03T15:20:11.238Z,50.80
2018-05-03T15:22:38.806Z,50.80
2018-05-03T15:25:06.355Z,50.60
2018-05-03T15:27:33.929Z,50.50
2018-05-03T15:30:01.473Z,50.40
2018-05-03T15:32:29.042Z,50.40
2018-05-03T15:34:56.586Z,50.50
2018-05-03T15:37:24.151Z,50.40
2018-05-03T15:39:51.695Z,50.30
2018-05-03T15:42:20.023Z,50.40
2018-05-03T15:44:47.567Z,50.40
2018-05-03T15:47:15.119Z,50.60
2018-05-03T15:49:42.664Z,50.60
2018-05-03T15:52:10.225Z,50.50
2018-05-03T15:54:37.761Z,50.60
2018-05-03T15:57:06.096Z,50.90
2018-05-03T15:59:33.643Z,50.70
2018-05-03T16:02:01.212Z,50.80
2018-05-03T16:04:28.754Z,50.80
2018-05-03T16:06:56.326Z,50.80
2018-05-03T16:09:23.862Z,51.00
2018-05-03T16:11:51.436Z,51.10
2018-05-03T16:14:19.013Z,51.10
2018-05-03T16:16:46.560Z,51.20
2018-05-03T16:19:14.103Z,51.20
2018-05-03T16:21:41.666Z,51.40
2018-05-03T16:24:09.212Z,51.50
2018-05-03T16:26:37.540Z,51.50
2018-05-03T16:29:05.077Z,51.40
2018-05-03T16:31:32.619Z,51.50
2018-05-03T16:34:00.187Z,51.60
2018-05-03T16:36:27.743Z,51.70
2018-05-03T16:38:55.306Z,51.70
2018-05-03T16:41:22.867Z,51.80
2018-05-03T16:43:50.437Z,51.70
2018-05-03T16:46:17.980Z,51.80
2018-05-03T16:48:45.533Z,51.80
2018-05-03T16:51:13.829Z,52.00
2018-05-03T16:53:41.391Z,51.90
2018-05-03T16:56:08.932Z,52.00
2018-05-03T16:58:37.272Z,52.00
2018-05-03T17:01:04.806Z,52.00
2018-05-03T17:03:32.371Z,52.20
2018-05-03T17:05:59.917Z,52.20
2018-05-03T17:08:27.483Z,52.20
2018-05-03T17:10:55.017Z,52.20
2018-05-03T17:13:22.578Z,52.30
2018-05-03T17:15:50.121Z,52.30
2018-05-03T17:18:18.451Z,52.40
2018-05-03T17:20:45.994Z,52.30
2018-05-03T17:23:13.564Z,52.20
2018-05-03T17:25:41.107Z,52.40
2018-05-03T17:28:08.671Z,52.30
2018-05-03T17:30:36.211Z,52.20
2018-05-03T17:33:03.775Z,52.20
2018-05-03T17:35:31.309Z,52.20
2018-05-03T17:37:59.649Z,52.50
2018-05-03T17:40:27.191Z,52.20
2018-05-03T17:42:54.759Z,52.30
2018-05-03T17:45:22.303Z,52.30
2018-05-03T17:47:49.863Z,52.20
2018-05-03T17:50:17.399Z,52.20
2018-05-03T17:52:45.728Z,52.40
2018-05-03T17:55:13.263Z,52.40
2018-05-03T17:57:40.819Z,52.40
2018-05-03T18:00:08.393Z,52.40
2018-05-03T18:02:35.956Z,52.40
2018-05-03T18:05:03.490Z,52.40
2018-05-03T18:07:31.040Z,52.40
2018-05-03T18:09:59.351Z,52.40
2018-05-03T18:12:26.910Z,52.40
2018-05-03T18:14:54.471Z,52.30
2018-05-03T18:17:22.034Z,52.40
2018-05-03T18:19:49.579Z,52.50
2018-05-03T18:22:17.140Z,52.40
2018-05-03T18:24:44.683Z,52.50
2018-05-03T18:27:13.008Z,52.60
2018-05-03T18:29:40.551Z,52.60
2018-05-03T18:32:08.089Z,52.60
2018-05-03T18:34:35.655Z,52.60
2018-05-03T18:37:03.188Z,52.60
2018-05-03T18:39:31.572Z,52.60
2018-05-03T18:41:59.874Z,52.60
2018-05-03T18:44:27.431Z,52.60
2018-05-03T18:46:54.975Z,52.60
2018-05-03T18:49:23.316Z,52.70
2018-05-03T18:51:50.854Z,52.70
2018-05-03T18:54:18.408Z,53.30
2018-05-03T18:56:45.947Z,52.80
2018-05-03T18:59:13.513Z,52.80
2018-05-03T19:01:41.050Z,52.80
2018-05-03T19:04:09.448Z,52.90
2018-05-03T19:06:36.993Z,52.90
2018-05-03T19:11:58.726Z,52.90
2018-05-03T19:14:27.073Z,53.10
2018-05-03T19:16:54.618Z,53.10
2018-05-03T19:19:22.177Z,53.00
2018-05-03T19:21:49.725Z,53.00
2018-05-03T19:24:17.285Z,53.10
2018-05-03T19:26:44.821Z,53.80
2018-05-03T19:29:12.381Z,53.20
2018-05-03T19:31:40.678Z,53.40
2018-05-03T19:34:09.479Z,53.30
2018-05-03T19:36:37.027Z,53.40
2018-05-03T19:39:04.617Z,53.40
2018-05-03T19:41:32.148Z,53.40
2018-05-03T19:43:59.707Z,53.50
2018-05-03T19:46:27.249Z,53.50
2018-05-03T19:48:54.816Z,53.60
2018-05-03T19:51:22.363Z,53.60
2018-05-03T19:53:50.686Z,53.70
2018-05-03T19:56:18.222Z,53.60
2018-05-03T19:58:45.786Z,53.70
2018-05-03T20:01:13.434Z,53.80
2018-05-03T20:03:40.989Z,54.50
2018-05-03T20:06:08.548Z,53.80
2018-05-03T20:08:36.870Z,53.90
2018-05-03T20:11:04.407Z,53.90
2018-05-03T20:13:32.075Z,53.90
2018-05-03T20:15:59.607Z,53.90
2018-05-03T20:18:27.918Z,53.90
2018-05-03T20:20:55.454Z,53.90
2018-05-03T20:23:23.011Z,54.00
2018-05-03T20:25:50.559Z,54.10
2018-05-03T20:28:18.895Z,54.20
2018-05-03T20:30:46.428Z,54.10
2018-05-03T20:33:13.988Z,54.10
2018-05-03T20:35:41.525Z,54.10
2018-05-03T20:38:09.081Z,54.20
2018-05-03T20:40:37.388Z,54.30
2018-05-03T20:43:04.942Z,54.30
2018-05-03T20:45:32.471Z,54.40
2018-05-03T20:48:00.800Z,54.60
2018-05-03T20:50:28.329Z,54.50
2018-05-03T20:52:55.865Z,54.50
2018-05-03T20:55:24.187Z,54.80
2018-05-03T20:57:51.729Z,54.70
2018-05-03T21:00:19.290Z,54.80
2018-05-03T21:02:46.822Z,54.90
2018-05-03T21:05:15.145Z,55.00
2018-05-03T21:07:42.706Z,54.90
2018-05-03T21:10:10.268Z,55.10
2018-05-03T21:12:37.885Z,55.20
2018-05-03T21:15:05.397Z,55.20
2018-05-03T21:17:32.955Z,55.30
2018-05-03T21:20:00.582Z,55.30
2018-05-03T21:22:28.122Z,55.30
2018-05-03T21:24:56.437Z,55.60
2018-05-03T21:27:23.975Z,55.50
2018-05-03T21:29:52.302Z,55.60
2018-05-03T21:32:19.842Z,55.60
2018-05-03T21:34:47.396Z,55.60
2018-05-03T21:37:14.935Z,55.70
2018-05-03T21:39:42.493Z,55.70
2018-05-03T21:42:10.026Z,55.80
2018-05-03T21:44:38.352Z,56.50
2018-05-03T21:47:05.897Z,55.90
2018-05-03T21:49:33.464Z,56.00
2018-05-03T21:52:01.004Z,56.00
2018-05-03T21:54:29.325Z,56.10
2018-05-03T21:56:56.862Z,56.10
2018-05-03T21:59:24.412Z,56.10
2018-05-03T22:01:51.955Z,56.10
2018-05-03T22:04:20.284Z,56.30
2018-05-03T22:06:47.823Z,56.30
2018-05-03T22:09:15.379Z,56.40
2018-05-03T22:11:42.922Z,56.40
2018-05-03T22:14:11.257Z,56.70
2018-05-03T22:16:38.793Z,56.70
2018-05-03T22:19:06.357Z,56.80
2018-05-03T22:21:33.901Z,57.00
2018-05-03T22:24:01.458Z,57.10
2018-05-03T22:26:28.994Z,57.10
2018-05-03T22:28:57.314Z,57.40
2018-05-03T22:31:24.853Z,57.30
2018-05-03T22:33:52.425Z,57.40
2018-05-03T22:36:19.969Z,57.50
2018-05-03T22:38:47.531Z,57.50
2018-05-03T22:41:15.076Z,57.60
2018-05-03T22:43:43.413Z,57.60
2018-05-03T22:46:11.709Z,57.70
2018-05-03T22:48:39.253Z,57.60
2018-05-03T22:51:06.820Z,57.50
2018-05-03T22:53:34.358Z,57.70
2018-05-03T22:56:01.929Z,57.70
2018-05-03T22:58:29.468Z,57.70
2018-05-03T23:00:57.020Z,57.70
2018-05-03T23:03:24.564Z,57.70
2018-05-03T23:05:52.126Z,57.70
2018-05-03T23:08:19.663Z,57.70
2018-05-03T23:10:47.992Z,57.70
2018-05-03T23:13:15.522Z,57.70
2018-05-03T23:15:43.078Z,57.70
2018-05-03T23:18:10.609Z,57.70
2018-05-03T23:20:38.172Z,57.70
2018-05-03T23:23:06.474Z,57.60
2018-05-03T23:25:34.031Z,57.50
2018-05-03T23:28:02.337Z,58.20
2018-05-03T23:30:29.925Z,57.50
2018-05-03T23:32:57.465Z,57.60
2018-05-03T23:35:25.028Z,57.60
2018-05-03T23:37:52.562Z,57.50
2018-05-03T23:40:20.113Z,57.50
2018-05-03T23:42:47.645Z,57.40
2018-05-03T23:45:15.967Z,57.60
2018-05-03T23:47:43.504Z,57.40
2018-05-03T23:50:11.063Z,57.30
2018-05-03T23:52:39.378Z,57.20
2018-05-03T23:55:06.927Z,57.20
2018-05-03T23:57:34.463Z,57.20
